createdAt,value
2018-04-11T00:01:37.133Z,47.67
2018-04-11T00:04:04.589Z,47.66
2018-04-11T00:06:32.188Z,47.63
2018-04-11T00:08:59.636Z,47.82
2018-04-11T00:11:36.792Z,47.90
2018-04-11T00:14:04.238Z,47.65
2018-04-11T00:16:31.713Z,47.89
2018-04-11T00:18:59.171Z,47.90
2018-04-11T00:21:26.657Z,48.02
2018-04-11T00:23:54.133Z,47.98
2018-04-11T00:26:21.632Z,48.05
2018-04-11T00:28:49.082Z,48.17
2018-04-11T00:31:16.560Z,48.10
2018-04-11T00:33:43.996Z,48.32
2018-04-11T00:36:11.680Z,48.54
2018-04-11T00:38:39.158Z,48.35
2018-04-11T00:41:06.597Z,48.50
2018-04-11T00:43:34.080Z,48.46
2018-04-11T00:46:01.549Z,48.45
2018-04-11T00:48:29.434Z,48.60
2018-04-11T00:50:56.892Z,48.94
2018-04-11T00:53:28.214Z,49.12
2018-04-11T00:55:55.668Z,48.86
2018-04-11T00:58:23.117Z,48.97
2018-04-11T01:00:50.614Z,49.45
2018-04-11T01:03:18.072Z,49.77
2018-04-11T01:05:45.523Z,50.13
2018-04-11T01:08:13.320Z,50.21
2018-04-11T01:10:40.855Z,50.37
2018-04-11T01:13:08.302Z,50.33
2018-04-11T01:15:35.766Z,50.00
2018-04-11T01:18:03.242Z,50.22
2018-04-11T01:23:27.953Z,50.62
2018-04-11T01:25:55.440Z,50.87
2018-04-11T01:28:22.970Z,51.01
2018-04-11T01:30:50.474Z,51.16
2018-04-11T01:33:17.924Z,50.87
2018-04-11T01:35:45.395Z,50.91
2018-04-11T01:38:12.898Z,50.85
2018-04-11T01:40:40.359Z,51.06
2018-04-11T01:43:07.901Z,51.22
2018-04-11T01:45:35.354Z,51.29
2018-04-11T01:48:03.051Z,51.26
2018-04-11T01:53:23.348Z,50.71
2018-04-11T01:55:50.808Z,50.57
2018-04-11T01:58:18.241Z,50.48
2018-04-11T02:00:45.681Z,50.42
2018-04-11T02:03:13.263Z,50.60
2018-04-11T02:05:40.741Z,50.73
2018-04-11T02:08:08.258Z,50.96
2018-04-11T02:10:35.757Z,50.95
2018-04-11T02:13:03.243Z,51.23
2018-04-11T02:15:30.778Z,51.01
2018-04-11T02:17:58.518Z,51.01
2018-04-11T02:20:26.068Z,51.24
2018-04-11T02:22:53.555Z,51.58
2018-04-11T02:25:21.022Z,51.73
2018-04-11T02:27:48.498Z,51.81
2018-04-11T02:30:15.969Z,51.70
2018-04-11T02:32:43.427Z,52.01
2018-04-11T02:35:10.861Z,52.45
2018-04-11T02:37:38.323Z,52.53
2018-04-11T02:40:05.790Z,52.42
2018-04-11T02:42:33.224Z,52.43
2018-04-11T02:45:00.687Z,52.81
2018-04-11T02:47:28.165Z,52.84
2018-04-11T02:49:55.842Z,52.65
2018-04-11T02:52:23.948Z,53.05
2018-04-11T02:54:51.391Z,52.96
2018-04-11T02:57:18.894Z,52.87
2018-04-11T02:59:46.316Z,53.18
2018-04-11T03:02:13.836Z,53.38
2018-04-11T03:04:41.353Z,53.44
2018-04-11T03:07:08.858Z,53.57
2018-04-11T03:09:36.343Z,53.66
2018-04-11T03:12:03.810Z,53.38
2018-04-11T03:14:31.295Z,53.32
2018-04-11T03:16:58.866Z,53.41
2018-04-11T03:19:26.331Z,53.32
2018-04-11T03:21:53.851Z,53.28
2018-04-11T03:24:21.290Z,53.13
2018-04-11T03:26:48.783Z,53.10
2018-04-11T03:29:16.239Z,53.27
2018-04-11T03:32:02.979Z,53.20
2018-04-11T03:34:30.475Z,53.44
2018-04-11T03:36:58.031Z,53.50
2018-04-11T03:39:25.492Z,53.60
2018-04-11T03:41:53.528Z,54.01
2018-04-11T03:44:21.051Z,54.08
2018-04-11T03:46:48.505Z,54.10
2018-04-11T03:49:15.989Z,54.21
2018-04-11T03:51:43.603Z,54.43
2018-04-11T03:54:11.190Z,54.45
2018-04-11T03:56:38.633Z,54.78
2018-04-11T03:59:06.091Z,54.54
2018-04-11T04:01:33.554Z,54.57
2018-04-11T04:04:01.052Z,54.60
2018-04-11T04:06:28.590Z,54.87
2018-04-11T04:08:56.052Z,55.08
2018-04-11T04:11:23.503Z,54.53
2018-04-11T04:14:02.659Z,54.82
2018-04-11T04:16:41.778Z,54.96
2018-04-11T04:19:20.987Z,54.84
2018-04-11T04:21:48.436Z,54.88
2018-04-11T04:24:15.891Z,55.33
2018-04-11T04:26:43.400Z,55.30
2018-04-11T04:29:10.854Z,55.60
2018-04-11T04:31:38.340Z,55.65
2018-04-11T04:34:05.822Z,55.62
2018-04-11T04:36:33.285Z,55.56
2018-04-11T04:39:00.768Z,56.13
2018-04-11T04:41:28.259Z,56.28
2018-04-11T04:43:55.710Z,56.08
2018-04-11T04:46:23.208Z,56.12
2018-04-11T04:48:50.671Z,56.45
2018-04-11T04:51:18.235Z,56.27
2018-04-11T04:53:45.683Z,56.48
2018-04-11T04:56:13.335Z,56.34
2018-04-11T04:58:41.054Z,56.16
2018-04-11T05:01:08.541Z,56.10
2018-04-11T05:03:35.998Z,55.74
2018-04-11T05:06:03.500Z,56.11
2018-04-11T05:08:30.950Z,56.36
2018-04-11T05:10:58.405Z,56.11
2018-04-11T05:13:25.876Z,56.11
2018-04-11T05:15:53.371Z,56.00
2018-04-11T05:18:21.277Z,55.91
2018-04-11T05:20:48.755Z,55.94
2018-04-11T05:23:16.216Z,56.22
2018-04-11T05:25:43.792Z,56.22
2018-04-11T05:28:11.274Z,55.88
2018-04-11T05:31:02.477Z,55.93
2018-04-11T05:33:30.025Z,55.38
2018-04-11T05:35:57.573Z,55.63
2018-04-11T05:38:25.072Z,55.42
2018-04-11T05:40:52.563Z,55.30
2018-04-11T05:43:20.032Z,55.51
2018-04-11T05:45:47.512Z,55.43
2018-04-11T05:48:15.010Z,54.95
2018-04-11T05:50:42.479Z,54.75
2018-04-11T05:53:09.950Z,54.45
2018-04-11T05:55:37.450Z,54.53
2018-04-11T05:58:05.853Z,54.50
2018-04-11T06:00:33.392Z,54.69
2018-04-11T06:03:00.942Z,54.51
2018-04-11T06:05:28.456Z,54.73
2018-04-11T06:07:56.010Z,54.72
2018-04-11T06:10:23.502Z,54.68
2018-04-11T06:12:51.058Z,55.11
2018-04-11T06:15:18.598Z,54.99
2018-04-11T06:17:47.111Z,55.17
2018-04-11T06:20:14.681Z,55.35
2018-04-11T06:22:44.802Z,55.35
2018-04-11T06:25:12.630Z,55.74
2018-04-11T06:27:41.137Z,55.81
2018-04-11T06:30:08.591Z,55.62
2018-04-11T06:32:36.792Z,55.59
2018-04-11T06:35:04.427Z,55.54
2018-04-11T06:37:31.835Z,55.70
2018-04-11T06:39:59.324Z,55.50
2018-04-11T06:42:26.930Z,56.00
2018-04-11T06:44:54.433Z,56.24
2018-04-11T06:47:22.171Z,56.18
2018-04-11T06:49:49.711Z,56.34
2018-04-11T06:52:17.179Z,56.32
2018-04-11T06:54:44.659Z,56.49
2018-04-11T06:57:12.157Z,56.17
2018-04-11T06:59:39.629Z,56.25
2018-04-11T07:02:07.109Z,56.14
2018-04-11T07:04:36.327Z,56.37
2018-04-11T07:07:03.771Z,56.51
2018-04-11T07:09:32.518Z,56.11
2018-04-11T07:12:00.071Z,56.21
2018-04-11T07:14:27.789Z,56.27
2018-04-11T07:16:56.222Z,56.40
2018-04-11T07:19:23.774Z,55.63
2018-04-11T07:21:56.249Z,55.94
2018-04-11T07:24:23.961Z,56.23
2018-04-11T07:26:51.396Z,55.61
2018-04-11T07:29:18.876Z,55.66
2018-04-11T07:31:56.250Z,55.43
2018-04-11T07:34:24.535Z,55.43
2018-04-11T07:36:52.924Z,55.60
2018-04-11T07:39:20.512Z,55.67
2018-04-11T07:44:41.491Z,55.60
2018-04-11T07:47:08.974Z,55.76
2018-04-11T07:49:36.434Z,56.13
2018-04-11T07:52:03.914Z,56.23
2018-04-11T07:54:31.526Z,55.92
2018-04-11T07:56:59.016Z,56.23
2018-04-11T07:59:26.493Z,56.47
2018-04-11T08:01:53.992Z,56.67
2018-04-11T08:04:21.460Z,56.40
2018-04-11T08:06:48.919Z,56.49
2018-04-11T08:09:16.370Z,56.66
2018-04-11T08:11:43.840Z,56.79
2018-04-11T08:14:11.339Z,57.09
2018-04-11T08:16:38.856Z,56.60
2018-04-11T08:19:06.326Z,56.48
2018-04-11T08:21:33.778Z,56.28
2018-04-11T08:24:00.677Z,56.13
2018-04-11T08:26:28.173Z,55.45
2018-04-11T08:28:55.637Z,55.31
2018-04-11T08:31:23.151Z,55.46
2018-04-11T08:33:50.618Z,55.28
2018-04-11T08:36:18.258Z,55.79
2018-04-11T08:38:45.190Z,54.75
2018-04-11T08:41:12.649Z,54.91
2018-04-11T08:43:40.149Z,55.20
2018-04-11T08:46:07.660Z,55.34
2018-04-11T08:48:35.151Z,55.80
2018-04-11T08:51:02.858Z,55.60
2018-04-11T08:53:30.337Z,55.24
2018-04-11T08:55:57.831Z,55.09
2018-04-11T08:58:25.274Z,55.25
2018-04-11T09:00:52.773Z,54.93
2018-04-11T09:03:20.253Z,54.88
2018-04-11T09:05:47.756Z,54.58
2018-04-11T09:08:15.206Z,54.38
2018-04-11T09:10:42.719Z,54.22
2018-04-11T09:13:10.162Z,54.03
2018-04-11T09:15:37.623Z,53.70
2018-04-11T09:18:05.090Z,53.68
2018-04-11T09:20:32.559Z,53.72
2018-04-11T09:23:00.055Z,53.12
2018-04-11T09:25:27.515Z,52.81
2018-04-11T09:27:55.836Z,52.36
2018-04-11T09:30:23.322Z,52.93
2018-04-11T09:32:50.792Z,53.12
2018-04-11T09:35:18.266Z,53.09
2018-04-11T09:37:45.723Z,53.22
2018-04-11T09:40:13.202Z,53.33
2018-04-11T09:42:40.736Z,53.44
2018-04-11T09:45:08.445Z,53.04
2018-04-11T09:47:35.937Z,52.98
2018-04-11T09:50:03.620Z,53.11
2018-04-11T09:52:31.124Z,52.69
2018-04-11T09:54:58.646Z,52.45
2018-04-11T09:57:26.114Z,51.77
2018-04-11T09:59:53.680Z,51.37
2018-04-11T10:02:24.075Z,50.44
2018-04-11T10:04:51.642Z,50.35
2018-04-11T10:07:19.359Z,50.09
2018-04-11T10:09:46.841Z,50.02
2018-04-11T10:12:14.306Z,49.93
2018-04-11T10:14:42.000Z,49.82
2018-04-11T10:17:09.474Z,49.43
2018-04-11T10:19:36.936Z,49.17
2018-04-11T10:22:04.408Z,48.69
2018-04-11T10:24:31.850Z,47.74
2018-04-11T10:26:59.366Z,47.46
2018-04-11T10:29:26.837Z,46.67
2018-04-11T10:31:54.297Z,46.93
2018-04-11T10:34:21.770Z,46.13
2018-04-11T10:36:49.238Z,45.86
2018-04-11T10:39:16.736Z,46.00
2018-04-11T10:41:44.188Z,46.13
2018-04-11T10:44:11.790Z,46.44
2018-04-11T10:46:39.243Z,46.22
2018-04-11T10:49:06.704Z,45.32
2018-04-11T10:51:34.238Z,44.70
2018-04-11T10:54:01.682Z,43.60
2018-04-11T10:56:29.144Z,43.86
2018-04-11T10:58:56.598Z,44.91
2018-04-11T11:01:24.069Z,46.00
2018-04-11T11:03:51.557Z,45.95
2018-04-11T11:06:19.048Z,45.43
2018-04-11T11:08:46.500Z,43.03
2018-04-11T11:11:13.953Z,41.83
2018-04-11T11:13:41.405Z,41.86
2018-04-11T11:16:08.849Z,42.48
2018-04-11T11:18:36.394Z,42.93
2018-04-11T11:21:03.852Z,43.48
2018-04-11T11:23:31.282Z,44.55
2018-04-11T11:25:58.772Z,45.46
2018-04-11T11:28:26.203Z,45.98
2018-04-11T11:30:53.744Z,46.33
2018-04-11T11:33:21.212Z,46.83
2018-04-11T11:35:48.681Z,47.54
2018-04-11T11:38:16.422Z,47.46
2018-04-11T11:40:43.913Z,47.67
2018-04-11T11:43:11.402Z,47.86
2018-04-11T11:45:38.907Z,47.97
2018-04-11T11:48:06.378Z,47.15
2018-04-11T11:50:33.864Z,46.16
2018-04-11T11:53:01.339Z,43.67
2018-04-11T11:55:28.839Z,43.76
2018-04-11T11:57:56.316Z,42.88
2018-04-11T12:00:23.823Z,44.51
2018-04-11T12:02:51.302Z,45.56
2018-04-11T12:05:18.774Z,44.53
2018-04-11T12:07:46.230Z,45.27
2018-04-11T12:10:13.722Z,45.14
2018-04-11T12:12:41.196Z,45.72
2018-04-11T12:15:08.674Z,46.03
2018-04-11T12:17:36.128Z,47.34
2018-04-11T12:20:03.629Z,47.11
2018-04-11T12:22:31.138Z,47.49
2018-04-11T12:24:58.661Z,47.73
2018-04-11T12:27:26.148Z,47.35
2018-04-11T12:29:53.677Z,46.60
2018-04-11T12:32:21.181Z,45.23
2018-04-11T12:34:48.732Z,43.72
2018-04-11T12:37:16.203Z,44.17
2018-04-11T12:39:43.661Z,43.59
2018-04-11T12:42:11.119Z,43.15
2018-04-11T12:44:38.602Z,42.04
2018-04-11T12:47:06.072Z,39.75
2018-04-11T12:49:33.569Z,37.34
2018-04-11T12:52:01.025Z,36.77
2018-04-11T12:54:28.478Z,36.93
2018-04-11T12:56:55.930Z,37.67
2018-04-11T12:59:23.416Z,36.81
2018-04-11T13:01:50.974Z,37.21
2018-04-11T13:04:18.524Z,38.14
2018-04-11T13:06:46.134Z,39.04
2018-04-11T13:09:13.669Z,39.44
2018-04-11T13:11:41.356Z,40.14
2018-04-11T13:14:08.881Z,41.52
2018-04-11T13:16:36.368Z,41.82
2018-04-11T13:19:03.874Z,41.41
2018-04-11T13:21:31.387Z,41.47
2018-04-11T13:23:58.891Z,39.24
2018-04-11T13:26:26.359Z,39.54
2018-04-11T13:28:53.907Z,39.47
2018-04-11T13:31:21.389Z,38.29
2018-04-11T13:33:48.863Z,37.53
2018-04-11T13:36:16.379Z,37.62
2018-04-11T13:38:43.832Z,36.89
2018-04-11T13:41:11.292Z,36.58
2018-04-11T13:43:38.738Z,36.00
2018-04-11T13:46:06.233Z,35.79
2018-04-11T13:48:33.786Z,36.10
2018-04-11T13:51:01.242Z,37.44
2018-04-11T13:53:28.737Z,36.92
2018-04-11T13:55:56.202Z,37.00
2018-04-11T13:58:23.670Z,36.81
2018-04-11T14:00:51.096Z,37.24
2018-04-11T14:03:19.155Z,37.93
2018-04-11T14:05:46.630Z,38.82
2018-04-11T14:08:14.160Z,40.12
2018-04-11T14:10:41.646Z,41.12
2018-04-11T14:13:09.097Z,41.72
2018-04-11T14:15:36.536Z,42.24
2018-04-11T14:18:04.038Z,42.52
2018-04-11T14:20:36.574Z,42.31
2018-04-11T14:23:04.112Z,42.90
2018-04-11T14:25:31.712Z,42.22
2018-04-11T14:27:59.151Z,41.87
2018-04-11T14:30:26.627Z,41.80
2018-04-11T14:32:54.095Z,41.84
2018-04-11T14:35:21.603Z,42.28
2018-04-11T14:37:49.062Z,42.41
2018-04-11T14:40:16.565Z,43.07
2018-04-11T14:42:44.301Z,43.03
2018-04-11T14:45:11.757Z,43.25
2018-04-11T14:47:39.223Z,43.35
2018-04-11T14:50:06.711Z,43.60
2018-04-11T14:52:34.179Z,43.90
2018-04-11T14:55:01.667Z,44.02
2018-04-11T14:57:29.181Z,44.50
2018-04-11T14:59:56.691Z,44.95
2018-04-11T15:02:24.165Z,45.69
2018-04-11T15:04:51.635Z,45.78
2018-04-11T15:07:19.119Z,46.30
2018-04-11T15:09:46.564Z,46.66
2018-04-11T15:12:14.067Z,46.92
2018-04-11T15:14:42.008Z,47.14
2018-04-11T15:17:09.476Z,47.98
2018-04-11T15:19:36.981Z,48.83
2018-04-11T15:22:04.427Z,47.92
2018-04-11T15:24:31.890Z,46.68
2018-04-11T15:26:59.638Z,46.62
2018-04-11T15:29:27.087Z,46.91
2018-04-11T15:31:54.553Z,46.10
2018-04-11T15:34:22.126Z,47.80
2018-04-11T15:36:49.591Z,48.21
2018-04-11T15:39:17.041Z,48.03
2018-04-11T15:41:44.521Z,48.82
2018-04-11T15:44:12.043Z,48.88
2018-04-11T15:46:39.543Z,50.28
2018-04-11T15:49:07.013Z,50.57
2018-04-11T15:51:34.663Z,54.77
2018-04-11T15:54:02.176Z,54.40
2018-04-11T15:56:29.649Z,55.45
2018-04-11T15:58:57.144Z,56.16
2018-04-11T16:01:48.503Z,56.62
2018-04-11T16:04:15.987Z,57.85
2018-04-11T16:06:43.463Z,58.12
2018-04-11T16:09:10.924Z,57.87
2018-04-11T16:11:38.439Z,58.65
2018-04-11T16:14:05.912Z,60.38
2018-04-11T16:16:33.396Z,61.12
2018-04-11T16:19:00.861Z,61.67
2018-04-11T16:21:33.289Z,64.01
2018-04-11T16:24:00.761Z,63.45
2018-04-11T16:26:29.535Z,62.54
2018-04-11T16:28:57.041Z,61.58
2018-04-11T16:31:24.505Z,62.57
2018-04-11T16:33:52.017Z,62.97
2018-04-11T16:36:19.563Z,63.70
2018-04-11T16:38:46.990Z,64.37
2018-04-11T16:41:14.476Z,64.03
2018-04-11T16:43:41.925Z,63.80
2018-04-11T16:46:09.417Z,64.19
2018-04-11T16:48:36.927Z,63.59
2018-04-11T16:51:04.382Z,63.37
2018-04-11T16:53:31.847Z,63.66
2018-04-11T16:55:59.337Z,63.59
2018-04-11T16:58:26.826Z,63.89
2018-04-11T17:00:54.372Z,63.91
2018-04-11T17:03:21.960Z,64.59
2018-04-11T17:05:49.454Z,64.00
2018-04-11T17:08:16.931Z,64.04
2018-04-11T17:10:44.559Z,64.53
2018-04-11T17:13:12.050Z,64.52
2018-04-11T17:15:39.507Z,64.63
2018-04-11T17:18:06.980Z,64.27
2018-04-11T17:20:46.158Z,64.29
2018-04-11T17:23:25.462Z,64.49
2018-04-11T17:26:04.820Z,64.71
2018-04-11T17:28:44.216Z,64.84
2018-04-11T17:31:26.640Z,65.16
2018-04-11T17:33:54.102Z,65.63
2018-04-11T17:36:21.563Z,65.63
2018-04-11T17:38:49.284Z,65.09
2018-04-11T17:41:16.880Z,64.82
2018-04-11T17:43:44.372Z,64.55
2018-04-11T17:46:11.873Z,64.30
2018-04-11T17:48:39.356Z,64.26
2018-04-11T17:51:06.948Z,64.04
2018-04-11T17:53:34.523Z,63.82
2018-04-11T17:56:02.288Z,63.77
2018-04-11T17:58:29.796Z,64.02
2018-04-11T18:01:02.388Z,64.39
2018-04-11T18:03:30.890Z,63.88
2018-04-11T18:05:58.390Z,63.93
2018-04-11T18:08:25.956Z,63.68
2018-04-11T18:10:53.486Z,62.64
2018-04-11T18:13:21.172Z,62.24
2018-04-11T18:15:48.787Z,62.50
2018-04-11T18:18:16.338Z,61.70
2018-04-11T18:20:43.934Z,61.87
2018-04-11T18:23:11.460Z,61.47
2018-04-11T18:25:38.952Z,61.85
2018-04-11T18:28:06.466Z,61.57
2018-04-11T18:30:34.135Z,61.78
2018-04-11T18:33:01.616Z,61.65
2018-04-11T18:35:29.461Z,61.90
2018-04-11T18:37:56.969Z,61.39
2018-04-11T18:40:34.194Z,61.32
2018-04-11T18:43:01.701Z,61.55
2018-04-11T18:45:29.209Z,61.62
2018-04-11T18:47:57.022Z,61.42
2018-04-11T18:50:24.552Z,60.97
2018-04-11T18:52:52.113Z,60.31
2018-04-11T18:55:19.747Z,60.12
2018-04-11T18:57:47.329Z,60.28
2018-04-11T19:00:14.824Z,60.16
2018-04-11T19:02:42.365Z,60.05
2018-04-11T19:05:09.929Z,59.59
2018-04-11T19:07:37.556Z,59.45
2018-04-11T19:10:05.092Z,59.13
2018-04-11T19:12:32.676Z,59.06
2018-04-11T19:15:00.232Z,59.41
2018-04-11T19:17:27.846Z,59.21
2018-04-11T19:19:55.474Z,59.05
2018-04-11T19:22:23.985Z,59.30
2018-04-11T19:24:51.599Z,59.54
2018-04-11T19:27:19.116Z,59.75
2018-04-11T19:29:46.583Z,59.81
2018-04-11T19:32:14.080Z,60.45
2018-04-11T19:34:41.606Z,60.93
2018-04-11T19:37:09.229Z,61.64
2018-04-11T19:39:36.765Z,62.29
2018-04-11T19:42:04.320Z,62.98
2018-04-11T19:44:31.814Z,63.44
2018-04-11T19:46:59.343Z,63.64
2018-04-11T19:49:27.389Z,64.39
2018-04-11T19:52:09.283Z,64.33
2018-04-11T19:54:36.812Z,64.18
2018-04-11T19:57:04.535Z,64.37
2018-04-11T19:59:32.108Z,64.25
2018-04-11T20:01:59.843Z,64.34
2018-04-11T20:04:27.359Z,64.58
2018-04-11T20:06:54.904Z,64.66
2018-04-11T20:09:22.416Z,64.99
2018-04-11T20:11:50.010Z,65.02
2018-04-11T20:14:17.489Z,65.28
2018-04-11T20:16:45.725Z,65.51
2018-04-11T20:19:14.071Z,65.29
2018-04-11T20:21:41.644Z,65.46
2018-04-11T20:24:09.201Z,65.71
2018-04-11T20:26:36.778Z,65.90
2018-04-11T20:29:04.686Z,66.19
2018-04-11T20:31:32.236Z,66.31
2018-04-11T20:33:59.706Z,66.41
2018-04-11T20:36:27.473Z,66.75
2018-04-11T20:38:55.098Z,66.78
2018-04-11T20:41:22.626Z,67.14
2018-04-11T20:43:50.287Z,67.33
2018-04-11T20:46:17.758Z,67.29
2018-04-11T20:48:45.253Z,67.69
2018-04-11T20:51:14.236Z,67.41
2018-04-11T20:53:41.772Z,67.91
2018-04-11T20:56:09.318Z,67.88
2018-04-11T20:58:36.810Z,67.97
2018-04-11T21:01:04.313Z,68.16
2018-04-11T21:03:32.045Z,68.26
2018-04-11T21:05:59.601Z,68.46
2018-04-11T21:08:27.094Z,68.35
2018-04-11T21:10:54.632Z,68.31
2018-04-11T21:13:22.117Z,68.62
2018-04-11T21:15:49.611Z,68.67
2018-04-11T21:18:17.108Z,68.80
2018-04-11T21:20:44.591Z,68.81
2018-04-11T21:23:12.031Z,69.11
2018-04-11T21:25:39.549Z,69.40
2018-04-11T21:28:07.004Z,69.54
2018-04-11T21:30:44.402Z,69.73
2018-04-11T21:33:11.894Z,70.11
2018-04-11T21:35:39.411Z,70.05
2018-04-11T21:38:06.952Z,70.07
2018-04-11T21:40:34.510Z,70.20
2018-04-11T21:43:01.993Z,70.10
2018-04-11T21:45:29.498Z,70.04
2018-04-11T21:47:56.976Z,70.04
2018-04-11T21:50:24.528Z,70.38
2018-04-11T21:52:52.019Z,70.62
2018-04-11T21:55:19.495Z,70.67
2018-04-11T21:57:46.933Z,70.94
2018-04-11T22:00:14.426Z,70.95
2018-04-11T22:02:41.931Z,71.15
2018-04-11T22:05:09.421Z,71.25
2018-04-11T22:07:36.869Z,71.27
2018-04-11T22:10:04.390Z,71.43
2018-04-11T22:12:31.818Z,71.56
2018-04-11T22:14:59.991Z,71.78
2018-04-11T22:17:28.052Z,71.87
2018-04-11T22:19:55.528Z,71.96
2018-04-11T22:22:23.013Z,71.92
2018-04-11T22:24:50.457Z,72.26
2018-04-11T22:27:17.927Z,72.52
2018-04-11T22:29:45.392Z,72.50
2018-04-11T22:32:12.934Z,72.37
2018-04-11T22:34:40.440Z,72.45
2018-04-11T22:37:07.893Z,72.27
2018-04-11T22:39:35.393Z,72.97
2018-04-11T22:42:02.835Z,72.79
2018-04-11T22:44:30.321Z,72.83
2018-04-11T22:46:57.775Z,72.99
2018-04-11T22:49:25.257Z,72.81
2018-04-11T22:51:52.715Z,72.91
2018-04-11T22:54:20.160Z,73.11
2018-04-11T22:56:47.657Z,72.99
2018-04-11T22:59:15.228Z,72.91
2018-04-11T23:01:42.733Z,72.95
2018-04-11T23:04:10.204Z,73.20
2018-04-11T23:06:37.663Z,73.45
2018-04-11T23:09:05.159Z,73.47
2018-04-11T23:11:32.615Z,73.52
2018-04-11T23:14:00.076Z,73.61
2018-04-11T23:16:27.559Z,73.84
2018-04-11T23:18:55.056Z,73.82
2018-04-11T23:21:22.557Z,74.08
2018-04-11T23:23:50.034Z,74.29
2018-04-11T23:26:17.506Z,74.46
2018-04-11T23:28:45.022Z,74.53
2018-04-11T23:31:12.747Z,74.50
2018-04-11T23:33:40.232Z,74.56
2018-04-11T23:36:07.679Z,74.80
2018-04-11T23:38:35.166Z,74.83
2018-04-11T23:41:02.680Z,74.97
2018-04-11T23:43:30.149Z,74.99
2018-04-11T23:45:57.653Z,75.09
2018-04-11T23:48:25.123Z,75.31
2018-04-11T23:50:52.609Z,75.55
2018-04-11T23:53:20.089Z,75.54
2018-04-11T23:55:47.563Z,75.69
2018-04-11T23:58:15.037Z,75.92
